sensor_id;sensor_type;location;lat;lon;timestamp;pressure;altitude;pressure_sealevel;temperature
65569;BMP180;52211;50.154;8.682;2022-10-17T00:01:10;100434.00;;;19.70
65569;BMP180;52211;50.154;8.682;2022-10-17T00:03:40;100435.00;;;19.70
65569;BMP180;52211;50.154;8.682;2022-10-17T00:06:11;100445.00;;;19.60
65569;BMP180;52211;50.154;8.682;2022-10-17T00:08:42;100436.00;;;19.60
65569;BMP180;52211;50.154;8.682;2022-10-17T00:11:24;100444.00;;;19.60
65569;BMP180;52211;50.154;8.682;2022-10-17T00:13:54;100446.00;;;19.60
65569;BMP180;52211;50.154;8.682;2022-10-17T00:16:30;100449.00;;;19.60
65569;BMP180;52211;50.154;8.682;2022-10-17T00:18:58;100457.00;;;19.60
65569;BMP180;52211;50.154;8.682;2022-10-17T00:21:26;100460.00;;;19.60
65569;BMP180;52211;50.154;8.682;2022-10-17T00:23:53;100462.00;;;19.60
65569;BMP180;52211;50.154;8.682;2022-10-17T00:26:22;100464.00;;;19.60
65569;BMP180;52211;50.154;8.682;2022-10-17T00:28:53;100472.00;;;19.60
65569;BMP180;52211;50.154;8.682;2022-10-17T00:31:23;100463.00;;;19.60
65569;BMP180;52211;50.154;8.682;2022-10-17T00:33:53;100459.00;;;19.70
65569;BMP180;52211;50.154;8.682;2022-10-17T00:36:26;100465.00;;;19.70
65569;BMP180;52211;50.154;8.682;2022-10-17T00:38:59;100458.00;;;19.70
65569;BMP180;52211;50.154;8.682;2022-10-17T00:41:30;100464.00;;;19.70
65569;BMP180;52211;50.154;8.682;2022-10-17T00:44:53;100463.00;;;19.70
65569;BMP180;52211;50.154;8.682;2022-10-17T00:47:02;100464.00;;;19.70
65569;BMP180;52211;50.154;8.682;2022-10-17T00:49:33;100468.00;;;19.70
65569;BMP180;52211;50.154;8.682;2022-10-17T00:52:12;100464.00;;;19.70
65569;BMP180;52211;50.154;8.682;2022-10-17T00:54:54;100467.00;;;19.70
65569;BMP180;52211;50.154;8.682;2022-10-17T00:57:24;100452.00;;;19.70
65569;BMP180;52211;50.154;8.682;2022-10-17T00:59:56;100463.00;;;19.70
65569;BMP180;52211;50.154;8.682;2022-10-17T01:02:27;100468.00;;;19.70
65569;BMP180;52211;50.154;8.682;2022-10-17T01:04:56;100468.00;;;19.70
65569;BMP180;52211;50.154;8.682;2022-10-17T01:07:27;100473.00;;;19.70
65569;BMP180;52211;50.154;8.682;2022-10-17T01:10:04;100461.00;;;19.70
65569;BMP180;52211;50.154;8.682;2022-10-17T01:13:32;100471.00;;;19.60
65569;BMP180;52211;50.154;8.682;2022-10-17T01:16:45;100468.00;;;19.60
65569;BMP180;52211;50.154;8.682;2022-10-17T01:22:40;100472.00;;;19.60
65569;BMP180;52211;50.154;8.682;2022-10-17T01:31:47;100465.00;;;19.50
65569;BMP180;52211;50.154;8.682;2022-10-17T01:40:28;100466.00;;;19.50
65569;BMP180;52211;50.154;8.682;2022-10-17T01:43:30;100474.00;;;19.50
65569;BMP180;52211;50.154;8.682;2022-10-17T01:48:54;100469.00;;;19.40
65569;BMP180;52211;50.154;8.682;2022-10-17T01:51:29;100466.00;;;19.40
65569;BMP180;52211;50.154;8.682;2022-10-17T01:57:12;100463.00;;;19.40
65569;BMP180;52211;50.154;8.682;2022-10-17T01:59:46;100464.00;;;19.40
65569;BMP180;52211;50.154;8.682;2022-10-17T02:02:16;100460.00;;;19.40
65569;BMP180;52211;50.154;8.682;2022-10-17T02:04:48;100470.00;;;19.40
65569;BMP180;52211;50.154;8.682;2022-10-17T02:07:17;100462.00;;;19.40
65569;BMP180;52211;50.154;8.682;2022-10-17T02:09:46;100463.00;;;19.40
65569;BMP180;52211;50.154;8.682;2022-10-17T02:27:16;100462.00;;;19.20
65569;BMP180;52211;50.154;8.682;2022-10-17T02:30:11;100468.00;;;19.20
65569;BMP180;52211;50.154;8.682;2022-10-17T02:35:38;100466.00;;;19.20
65569;BMP180;52211;50.154;8.682;2022-10-17T02:38:09;100461.00;;;19.20
65569;BMP180;52211;50.154;8.682;2022-10-17T02:40:40;100474.00;;;19.20
65569;BMP180;52211;50.154;8.682;2022-10-17T02:43:11;100473.00;;;19.10
65569;BMP180;52211;50.154;8.682;2022-10-17T02:45:42;100467.00;;;19.10
65569;BMP180;52211;50.154;8.682;2022-10-17T02:48:43;100468.00;;;19.10
65569;BMP180;52211;50.154;8.682;2022-10-17T02:51:56;100471.00;;;19.10
65569;BMP180;52211;50.154;8.682;2022-10-17T02:54:36;100479.00;;;19.00
65569;BMP180;52211;50.154;8.682;2022-10-17T02:59:41;100464.00;;;19.00
65569;BMP180;52211;50.154;8.682;2022-10-17T03:02:13;100474.00;;;19.00
65569;BMP180;52211;50.154;8.682;2022-10-17T03:04:45;100465.00;;;19.00
65569;BMP180;52211;50.154;8.682;2022-10-17T03:07:12;100467.00;;;19.00
65569;BMP180;52211;50.154;8.682;2022-10-17T03:09:41;100467.00;;;19.00
65569;BMP180;52211;50.154;8.682;2022-10-17T03:12:08;100472.00;;;19.00
65569;BMP180;52211;50.154;8.682;2022-10-17T03:14:37;100476.00;;;19.00
65569;BMP180;52211;50.154;8.682;2022-10-17T03:17:06;100481.00;;;19.00
65569;BMP180;52211;50.154;8.682;2022-10-17T03:19:38;100472.00;;;19.00
65569;BMP180;52211;50.154;8.682;2022-10-17T03:22:04;100476.00;;;19.00
65569;BMP180;52211;50.154;8.682;2022-10-17T03:24:35;100477.00;;;19.00
65569;BMP180;52211;50.154;8.682;2022-10-17T03:27:07;100480.00;;;19.00
65569;BMP180;52211;50.154;8.682;2022-10-17T03:29:39;100475.00;;;19.00
65569;BMP180;52211;50.154;8.682;2022-10-17T03:32:08;100493.00;;;19.00
65569;BMP180;52211;50.154;8.682;2022-10-17T03:34:39;100494.00;;;19.00
65569;BMP180;52211;50.154;8.682;2022-10-17T03:37:08;100498.00;;;19.00
65569;BMP180;52211;50.154;8.682;2022-10-17T03:39:35;100496.00;;;19.00
65569;BMP180;52211;50.154;8.682;2022-10-17T03:42:02;100498.00;;;19.00
65569;BMP180;52211;50.154;8.682;2022-10-17T03:44:28;100501.00;;;19.00
65569;BMP180;52211;50.154;8.682;2022-10-17T03:46:56;100505.00;;;19.00
65569;BMP180;52211;50.154;8.682;2022-10-17T03:49:23;100510.00;;;19.00
65569;BMP180;52211;50.154;8.682;2022-10-17T03:51:52;100510.00;;;19.00
65569;BMP180;52211;50.154;8.682;2022-10-17T03:54:19;100511.00;;;19.00
65569;BMP180;52211;50.154;8.682;2022-10-17T03:56:45;100506.00;;;19.00
65569;BMP180;52211;50.154;8.682;2022-10-17T03:59:14;100523.00;;;19.00
65569;BMP180;52211;50.154;8.682;2022-10-17T04:01:45;100518.00;;;19.00
65569;BMP180;52211;50.154;8.682;2022-10-17T04:04:19;100515.00;;;19.00
65569;BMP180;52211;50.154;8.682;2022-10-17T04:06:46;100519.00;;;19.00
65569;BMP180;52211;50.154;8.682;2022-10-17T04:09:15;100520.00;;;19.00
65569;BMP180;52211;50.154;8.682;2022-10-17T04:11:44;100515.00;;;19.00
65569;BMP180;52211;50.154;8.682;2022-10-17T04:14:11;100531.00;;;19.00
65569;BMP180;52211;50.154;8.682;2022-10-17T04:16:38;100525.00;;;19.00
65569;BMP180;52211;50.154;8.682;2022-10-17T04:19:04;100535.00;;;19.00
65569;BMP180;52211;50.154;8.682;2022-10-17T04:21:31;100532.00;;;19.00
65569;BMP180;52211;50.154;8.682;2022-10-17T04:24:00;100528.00;;;19.00
65569;BMP180;52211;50.154;8.682;2022-10-17T04:26:29;100524.00;;;19.00
65569;BMP180;52211;50.154;8.682;2022-10-17T04:28:58;100526.00;;;19.00
65569;BMP180;52211;50.154;8.682;2022-10-17T04:31:27;100528.00;;;19.00
65569;BMP180;52211;50.154;8.682;2022-10-17T04:33:56;100522.00;;;19.00
65569;BMP180;52211;50.154;8.682;2022-10-17T04:36:28;100533.00;;;19.00
65569;BMP180;52211;50.154;8.682;2022-10-17T04:38:57;100524.00;;;19.00
65569;BMP180;52211;50.154;8.682;2022-10-17T04:41:30;100528.00;;;19.00
65569;BMP180;52211;50.154;8.682;2022-10-17T04:43:57;100530.00;;;19.00
65569;BMP180;52211;50.154;8.682;2022-10-17T04:46:26;100535.00;;;19.00
65569;BMP180;52211;50.154;8.682;2022-10-17T04:48:53;100542.00;;;18.90
65569;BMP180;52211;50.154;8.682;2022-10-17T04:51:20;100544.00;;;18.90
65569;BMP180;52211;50.154;8.682;2022-10-17T04:53:52;100535.00;;;18.90
65569;BMP180;52211;50.154;8.682;2022-10-17T04:56:21;100542.00;;;18.90
65569;BMP180;52211;50.154;8.682;2022-10-17T04:58:48;100537.00;;;18.90
65569;BMP180;52211;50.154;8.682;2022-10-17T05:01:23;100538.00;;;18.90
65569;BMP180;52211;50.154;8.682;2022-10-17T05:03:54;100536.00;;;18.90
65569;BMP180;52211;50.154;8.682;2022-10-17T05:06:24;100545.00;;;18.90
65569;BMP180;52211;50.154;8.682;2022-10-17T05:08:56;100541.00;;;18.90
65569;BMP180;52211;50.154;8.682;2022-10-17T05:11:31;100544.00;;;18.80
65569;BMP180;52211;50.154;8.682;2022-10-17T05:14:01;100545.00;;;18.80
65569;BMP180;52211;50.154;8.682;2022-10-17T05:16:29;100557.00;;;18.80
65569;BMP180;52211;50.154;8.682;2022-10-17T05:19:00;100565.00;;;18.80
65569;BMP180;52211;50.154;8.682;2022-10-17T05:21:30;100568.00;;;18.80
65569;BMP180;52211;50.154;8.682;2022-10-17T05:24:09;100565.00;;;18.80
65569;BMP180;52211;50.154;8.682;2022-10-17T05:26:41;100554.00;;;18.80
65569;BMP180;52211;50.154;8.682;2022-10-17T05:29:08;100559.00;;;18.80
65569;BMP180;52211;50.154;8.682;2022-10-17T05:31:36;100552.00;;;18.80
65569;BMP180;52211;50.154;8.682;2022-10-17T05:34:06;100548.00;;;18.80
65569;BMP180;52211;50.154;8.682;2022-10-17T05:36:39;100553.00;;;18.80
65569;BMP180;52211;50.154;8.682;2022-10-17T05:39:06;100552.00;;;18.80
65569;BMP180;52211;50.154;8.682;2022-10-17T05:41:36;100554.00;;;18.80
65569;BMP180;52211;50.154;8.682;2022-10-17T05:44:03;100556.00;;;18.70
65569;BMP180;52211;50.154;8.682;2022-10-17T05:46:32;100557.00;;;18.70
65569;BMP180;52211;50.154;8.682;2022-10-17T05:48:59;100563.00;;;18.70
65569;BMP180;52211;50.154;8.682;2022-10-17T05:51:47;100557.00;;;18.70
65569;BMP180;52211;50.154;8.682;2022-10-17T05:54:14;100560.00;;;18.70
65569;BMP180;52211;50.154;8.682;2022-10-17T05:56:43;100561.00;;;18.70
65569;BMP180;52211;50.154;8.682;2022-10-17T05:59:09;100556.00;;;18.70
65569;BMP180;52211;50.154;8.682;2022-10-17T06:01:36;100564.00;;;18.70
65569;BMP180;52211;50.154;8.682;2022-10-17T06:04:03;100559.00;;;18.70
65569;BMP180;52211;50.154;8.682;2022-10-17T06:06:30;100561.00;;;18.70
65569;BMP180;52211;50.154;8.682;2022-10-17T06:08:59;100566.00;;;18.70
65569;BMP180;52211;50.154;8.682;2022-10-17T06:11:28;100569.00;;;18.70
65569;BMP180;52211;50.154;8.682;2022-10-17T06:13:57;100573.00;;;18.70
65569;BMP180;52211;50.154;8.682;2022-10-17T06:16:25;100571.00;;;18.70
65569;BMP180;52211;50.154;8.682;2022-10-17T06:18:57;100574.00;;;18.70
65569;BMP180;52211;50.154;8.682;2022-10-17T06:21:26;100575.00;;;18.70
65569;BMP180;52211;50.154;8.682;2022-10-17T06:23:53;100576.00;;;18.70
65569;BMP180;52211;50.154;8.682;2022-10-17T06:26:24;100577.00;;;18.70
65569;BMP180;52211;50.154;8.682;2022-10-17T06:28:55;100580.00;;;18.70
65569;BMP180;52211;50.154;8.682;2022-10-17T06:31:27;100577.00;;;18.70
65569;BMP180;52211;50.154;8.682;2022-10-17T06:33:53;100583.00;;;18.70
65569;BMP180;52211;50.154;8.682;2022-10-17T06:36:22;100595.00;;;18.70
65569;BMP180;52211;50.154;8.682;2022-10-17T06:38:49;100592.00;;;18.70
65569;BMP180;52211;50.154;8.682;2022-10-17T06:41:18;100589.00;;;18.80
65569;BMP180;52211;50.154;8.682;2022-10-17T06:43:48;100592.00;;;18.80
65569;BMP180;52211;50.154;8.682;2022-10-17T06:46:20;100597.00;;;18.80
65569;BMP180;52211;50.154;8.682;2022-10-17T06:48:49;100595.00;;;18.80
65569;BMP180;52211;50.154;8.682;2022-10-17T06:51:16;100608.00;;;18.80
65569;BMP180;52211;50.154;8.682;2022-10-17T06:53:43;100607.00;;;18.80
65569;BMP180;52211;50.154;8.682;2022-10-17T06:56:10;100615.00;;;18.80
65569;BMP180;52211;50.154;8.682;2022-10-17T06:58:38;100611.00;;;18.80
65569;BMP180;52211;50.154;8.682;2022-10-17T07:01:09;100610.00;;;18.90
65569;BMP180;52211;50.154;8.682;2022-10-17T07:03:39;100617.00;;;18.90
65569;BMP180;52211;50.154;8.682;2022-10-17T07:06:11;100620.00;;;18.90
65569;BMP180;52211;50.154;8.682;2022-10-17T07:08:46;100616.00;;;18.90
65569;BMP180;52211;50.154;8.682;2022-10-17T07:11:19;100617.00;;;19.00
65569;BMP180;52211;50.154;8.682;2022-10-17T07:13:51;100617.00;;;19.00
65569;BMP180;52211;50.154;8.682;2022-10-17T07:16:21;100623.00;;;19.00
65569;BMP180;52211;50.154;8.682;2022-10-17T07:18:51;100615.00;;;19.00
65569;BMP180;52211;50.154;8.682;2022-10-17T07:21:22;100619.00;;;19.10
65569;BMP180;52211;50.154;8.682;2022-10-17T07:23:51;100623.00;;;19.10
65569;BMP180;52211;50.154;8.682;2022-10-17T07:26:18;100623.00;;;19.10
65569;BMP180;52211;50.154;8.682;2022-10-17T07:28:50;100632.00;;;19.10
65569;BMP180;52211;50.154;8.682;2022-10-17T07:31:24;100635.00;;;19.20
65569;BMP180;52211;50.154;8.682;2022-10-17T07:33:51;100646.00;;;19.20
65569;BMP180;52211;50.154;8.682;2022-10-17T07:36:17;100649.00;;;19.20
65569;BMP180;52211;50.154;8.682;2022-10-17T07:38:44;100648.00;;;19.30
65569;BMP180;52211;50.154;8.682;2022-10-17T07:41:16;100648.00;;;19.40
65569;BMP180;52211;50.154;8.682;2022-10-17T07:43:49;100652.00;;;19.40
65569;BMP180;52211;50.154;8.682;2022-10-17T07:46:16;100651.00;;;19.50
65569;BMP180;52211;50.154;8.682;2022-10-17T07:48:43;100660.00;;;19.50
65569;BMP180;52211;50.154;8.682;2022-10-17T07:51:10;100660.00;;;19.60
65569;BMP180;52211;50.154;8.682;2022-10-17T07:53:40;100660.00;;;19.70
65569;BMP180;52211;50.154;8.682;2022-10-17T07:56:13;100663.00;;;19.80
65569;BMP180;52211;50.154;8.682;2022-10-17T07:58:42;100661.00;;;19.80
65569;BMP180;52211;50.154;8.682;2022-10-17T08:01:11;100657.00;;;19.90
65569;BMP180;52211;50.154;8.682;2022-10-17T08:03:45;100655.00;;;20.00
65569;BMP180;52211;50.154;8.682;2022-10-17T08:06:16;100650.00;;;20.10
65569;BMP180;52211;50.154;8.682;2022-10-17T08:08:46;100654.00;;;20.20
65569;BMP180;52211;50.154;8.682;2022-10-17T08:11:16;100664.00;;;20.30
65569;BMP180;52211;50.154;8.682;2022-10-17T08:13:45;100663.00;;;20.30
65569;BMP180;52211;50.154;8.682;2022-10-17T08:16:14;100653.00;;;20.40
65569;BMP180;52211;50.154;8.682;2022-10-17T08:18:43;100650.00;;;20.50
65569;BMP180;52211;50.154;8.682;2022-10-17T08:21:11;100651.00;;;20.60
65569;BMP180;52211;50.154;8.682;2022-10-17T08:23:39;100641.00;;;20.70
65569;BMP180;52211;50.154;8.682;2022-10-17T08:26:16;100642.00;;;20.80
65569;BMP180;52211;50.154;8.682;2022-10-17T08:28:46;100632.00;;;20.90
65569;BMP180;52211;50.154;8.682;2022-10-17T08:31:18;100652.00;;;20.90
65569;BMP180;52211;50.154;8.682;2022-10-17T08:33:49;100654.00;;;21.00
65569;BMP180;52211;50.154;8.682;2022-10-17T08:36:25;100662.00;;;21.10
65569;BMP180;52211;50.154;8.682;2022-10-17T08:38:54;100662.00;;;21.20
65569;BMP180;52211;50.154;8.682;2022-10-17T08:47:40;100665.00;;;21.40
65569;BMP180;52211;50.154;8.682;2022-10-17T08:51:17;100669.00;;;21.50
65569;BMP180;52211;50.154;8.682;2022-10-17T08:54:04;100659.00;;;21.50
65569;BMP180;52211;50.154;8.682;2022-10-17T08:56:48;100655.00;;;21.60
65569;BMP180;52211;50.154;8.682;2022-10-17T08:59:25;100652.00;;;21.70
65569;BMP180;52211;50.154;8.682;2022-10-17T09:13:49;100654.00;;;21.90
65569;BMP180;52211;50.154;8.682;2022-10-17T09:19:14;100660.00;;;22.00
65569;BMP180;52211;50.154;8.682;2022-10-17T09:21:48;100675.00;;;22.10
65569;BMP180;52211;50.154;8.682;2022-10-17T09:24:26;100674.00;;;22.10
65569;BMP180;52211;50.154;8.682;2022-10-17T09:26:54;100677.00;;;22.10
65569;BMP180;52211;50.154;8.682;2022-10-17T09:29:26;100676.00;;;22.10
65569;BMP180;52211;50.154;8.682;2022-10-17T09:32:15;100683.00;;;22.20
65569;BMP180;52211;50.154;8.682;2022-10-17T09:34:45;100679.00;;;22.20
65569;BMP180;52211;50.154;8.682;2022-10-17T09:37:15;100673.00;;;22.30
65569;BMP180;52211;50.154;8.682;2022-10-17T09:39:47;100667.00;;;22.30
65569;BMP180;52211;50.154;8.682;2022-10-17T09:42:24;100676.00;;;22.40
65569;BMP180;52211;50.154;8.682;2022-10-17T09:47:52;100686.00;;;22.60
65569;BMP180;52211;50.154;8.682;2022-10-17T09:50:33;100683.00;;;22.70
65569;BMP180;52211;50.154;8.682;2022-10-17T09:53:40;100678.00;;;23.00
65569;BMP180;52211;50.154;8.682;2022-10-17T09:56:18;100686.00;;;23.40
65569;BMP180;52211;50.154;8.682;2022-10-17T09:58:52;100692.00;;;23.80
65569;BMP180;52211;50.154;8.682;2022-10-17T10:01:30;100697.00;;;24.20
65569;BMP180;52211;50.154;8.682;2022-10-17T10:04:16;100693.00;;;24.50
65569;BMP180;52211;50.154;8.682;2022-10-17T10:07:10;100696.00;;;24.80
65569;BMP180;52211;50.154;8.682;2022-10-17T10:09:37;100712.00;;;25.10
65569;BMP180;52211;50.154;8.682;2022-10-17T10:12:25;100707.00;;;25.30
65569;BMP180;52211;50.154;8.682;2022-10-17T10:14:55;100709.00;;;25.60
65569;BMP180;52211;50.154;8.682;2022-10-17T10:23:17;100713.00;;;26.40
65569;BMP180;52211;50.154;8.682;2022-10-17T10:25:53;100708.00;;;26.80
65569;BMP180;52211;50.154;8.682;2022-10-17T10:28:26;100711.00;;;27.10
65569;BMP180;52211;50.154;8.682;2022-10-17T10:31:05;100719.00;;;27.40
65569;BMP180;52211;50.154;8.682;2022-10-17T10:33:39;100713.00;;;27.70
65569;BMP180;52211;50.154;8.682;2022-10-17T10:36:07;100703.00;;;28.00
65569;BMP180;52211;50.154;8.682;2022-10-17T10:38:41;100713.00;;;28.20
65569;BMP180;52211;50.154;8.682;2022-10-17T10:41:10;100712.00;;;28.50
65569;BMP180;52211;50.154;8.682;2022-10-17T10:43:46;100721.00;;;28.90
65569;BMP180;52211;50.154;8.682;2022-10-17T10:46:23;100714.00;;;29.20
65569;BMP180;52211;50.154;8.682;2022-10-17T10:48:54;100720.00;;;29.40
65569;BMP180;52211;50.154;8.682;2022-10-17T10:51:40;100715.00;;;29.50
65569;BMP180;52211;50.154;8.682;2022-10-17T10:56:52;100715.00;;;29.80
65569;BMP180;52211;50.154;8.682;2022-10-17T10:59:32;100715.00;;;29.90
65569;BMP180;52211;50.154;8.682;2022-10-17T11:02:34;100711.00;;;30.10
65569;BMP180;52211;50.154;8.682;2022-10-17T11:05:35;100724.00;;;30.20
65569;BMP180;52211;50.154;8.682;2022-10-17T11:11:19;100720.00;;;30.50
65569;BMP180;52211;50.154;8.682;2022-10-17T11:14:16;100723.00;;;30.70
65569;BMP180;52211;50.154;8.682;2022-10-17T11:19:37;100717.00;;;31.00
65569;BMP180;52211;50.154;8.682;2022-10-17T11:22:35;100733.00;;;31.10
65569;BMP180;52211;50.154;8.682;2022-10-17T11:25:18;100728.00;;;31.30
65569;BMP180;52211;50.154;8.682;2022-10-17T11:27:47;100732.00;;;31.40
65569;BMP180;52211;50.154;8.682;2022-10-17T11:30:15;100740.00;;;31.30
65569;BMP180;52211;50.154;8.682;2022-10-17T11:32:58;100724.00;;;31.20
65569;BMP180;52211;50.154;8.682;2022-10-17T11:35:42;100733.00;;;31.10
65569;BMP180;52211;50.154;8.682;2022-10-17T11:38:21;100738.00;;;31.20
65569;BMP180;52211;50.154;8.682;2022-10-17T11:40:58;100725.00;;;31.20
65569;BMP180;52211;50.154;8.682;2022-10-17T11:43:39;100725.00;;;31.30
65569;BMP180;52211;50.154;8.682;2022-10-17T11:46:22;100729.00;;;31.50
65569;BMP180;52211;50.154;8.682;2022-10-17T11:51:54;100733.00;;;32.00
65569;BMP180;52211;50.154;8.682;2022-10-17T11:54:56;100729.00;;;32.40
65569;BMP180;52211;50.154;8.682;2022-10-17T11:57:56;100729.00;;;32.70
65569;BMP180;52211;50.154;8.682;2022-10-17T12:00:40;100732.00;;;32.90
65569;BMP180;52211;50.154;8.682;2022-10-17T12:12:29;100733.00;;;33.50
65569;BMP180;52211;50.154;8.682;2022-10-17T12:18:07;100727.00;;;33.70
65569;BMP180;52211;50.154;8.682;2022-10-17T12:20:56;100713.00;;;33.70
65569;BMP180;52211;50.154;8.682;2022-10-17T12:23:30;100709.00;;;33.70
65569;BMP180;52211;50.154;8.682;2022-10-17T12:26:04;100705.00;;;33.50
65569;BMP180;52211;50.154;8.682;2022-10-17T12:34:03;100710.00;;;33.20
65569;BMP180;52211;50.154;8.682;2022-10-17T12:46:58;100723.00;;;33.50
65569;BMP180;52211;50.154;8.682;2022-10-17T12:49:48;100727.00;;;33.60
65569;BMP180;52211;50.154;8.682;2022-10-17T12:58:13;100731.00;;;34.10
65569;BMP180;52211;50.154;8.682;2022-10-17T13:00:54;100729.00;;;34.10
65569;BMP180;52211;50.154;8.682;2022-10-17T13:03:45;100727.00;;;34.10
65569;BMP180;52211;50.154;8.682;2022-10-17T13:06:26;100739.00;;;34.20
65569;BMP180;52211;50.154;8.682;2022-10-17T13:09:36;100738.00;;;34.20
65569;BMP180;52211;50.154;8.682;2022-10-17T13:12:14;100739.00;;;34.20
65569;BMP180;52211;50.154;8.682;2022-10-17T13:14:52;100738.00;;;34.10
65569;BMP180;52211;50.154;8.682;2022-10-17T13:17:29;100730.00;;;33.90
65569;BMP180;52211;50.154;8.682;2022-10-17T13:19:56;100726.00;;;33.70
65569;BMP180;52211;50.154;8.682;2022-10-17T13:22:28;100725.00;;;33.60
65569;BMP180;52211;50.154;8.682;2022-10-17T13:25:17;100731.00;;;33.60
65569;BMP180;52211;50.154;8.682;2022-10-17T13:27:49;100718.00;;;33.60
65569;BMP180;52211;50.154;8.682;2022-10-17T13:30:30;100729.00;;;33.50
65569;BMP180;52211;50.154;8.682;2022-10-17T13:33:14;100729.00;;;33.50
65569;BMP180;52211;50.154;8.682;2022-10-17T13:35:45;100732.00;;;33.50
65569;BMP180;52211;50.154;8.682;2022-10-17T13:38:33;100729.00;;;33.60
65569;BMP180;52211;50.154;8.682;2022-10-17T13:41:12;100739.00;;;33.60
65569;BMP180;52211;50.154;8.682;2022-10-17T13:44:15;100747.00;;;33.50
65569;BMP180;52211;50.154;8.682;2022-10-17T13:46:44;100743.00;;;33.40
65569;BMP180;52211;50.154;8.682;2022-10-17T13:49:41;100742.00;;;33.20
65569;BMP180;52211;50.154;8.682;2022-10-17T13:52:25;100742.00;;;33.10
65569;BMP180;52211;50.154;8.682;2022-10-17T13:55:15;100743.00;;;33.00
65569;BMP180;52211;50.154;8.682;2022-10-17T13:57:45;100750.00;;;33.00
65569;BMP180;52211;50.154;8.682;2022-10-17T14:00:20;100746.00;;;32.90
65569;BMP180;52211;50.154;8.682;2022-10-17T14:02:48;100742.00;;;32.80
65569;BMP180;52211;50.154;8.682;2022-10-17T14:05:20;100743.00;;;32.60
65569;BMP180;52211;50.154;8.682;2022-10-17T14:08:04;100747.00;;;32.50
65569;BMP180;52211;50.154;8.682;2022-10-17T14:10:42;100746.00;;;32.20
65569;BMP180;52211;50.154;8.682;2022-10-17T14:13:28;100760.00;;;32.00
65569;BMP180;52211;50.154;8.682;2022-10-17T14:16:01;100753.00;;;31.80
65569;BMP180;52211;50.154;8.682;2022-10-17T14:18:35;100748.00;;;31.70
65569;BMP180;52211;50.154;8.682;2022-10-17T14:21:06;100749.00;;;31.50
65569;BMP180;52211;50.154;8.682;2022-10-17T14:26:55;100753.00;;;31.30
65569;BMP180;52211;50.154;8.682;2022-10-17T14:29:30;100756.00;;;31.20
65569;BMP180;52211;50.154;8.682;2022-10-17T14:32:02;100761.00;;;31.10
65569;BMP180;52211;50.154;8.682;2022-10-17T14:34:36;100761.00;;;31.10
65569;BMP180;52211;50.154;8.682;2022-10-17T14:39:50;100755.00;;;30.90
65569;BMP180;52211;50.154;8.682;2022-10-17T14:42:24;100757.00;;;30.80
65569;BMP180;52211;50.154;8.682;2022-10-17T14:44:53;100759.00;;;30.70
65569;BMP180;52211;50.154;8.682;2022-10-17T14:47:26;100763.00;;;30.60
65569;BMP180;52211;50.154;8.682;2022-10-17T14:52:38;100768.00;;;30.40
65569;BMP180;52211;50.154;8.682;2022-10-17T14:55:25;100774.00;;;30.30
65569;BMP180;52211;50.154;8.682;2022-10-17T14:57:52;100779.00;;;30.30
65569;BMP180;52211;50.154;8.682;2022-10-17T15:00:21;100780.00;;;30.20
65569;BMP180;52211;50.154;8.682;2022-10-17T15:02:54;100781.00;;;30.10
65569;BMP180;52211;50.154;8.682;2022-10-17T15:05:21;100783.00;;;30.10
65569;BMP180;52211;50.154;8.682;2022-10-17T15:07:54;100783.00;;;30.00
65569;BMP180;52211;50.154;8.682;2022-10-17T15:10:34;100793.00;;;29.90
65569;BMP180;52211;50.154;8.682;2022-10-17T15:13:03;100791.00;;;29.80
65569;BMP180;52211;50.154;8.682;2022-10-17T15:15:51;100793.00;;;29.70
65569;BMP180;52211;50.154;8.682;2022-10-17T15:18:18;100799.00;;;29.60
65569;BMP180;52211;50.154;8.682;2022-10-17T15:20:45;100803.00;;;29.50
65569;BMP180;52211;50.154;8.682;2022-10-17T15:23:14;100810.00;;;29.40
65569;BMP180;52211;50.154;8.682;2022-10-17T15:25:43;100807.00;;;29.30
65569;BMP180;52211;50.154;8.682;2022-10-17T15:28:12;100805.00;;;29.20
65569;BMP180;52211;50.154;8.682;2022-10-17T15:30:38;100805.00;;;29.10
65569;BMP180;52211;50.154;8.682;2022-10-17T15:33:08;100804.00;;;29.10
65569;BMP180;52211;50.154;8.682;2022-10-17T15:35:35;100802.00;;;29.10
65569;BMP180;52211;50.154;8.682;2022-10-17T15:38:07;100805.00;;;29.00
65569;BMP180;52211;50.154;8.682;2022-10-17T15:40:34;100805.00;;;29.00
65569;BMP180;52211;50.154;8.682;2022-10-17T15:43:08;100816.00;;;28.90
65569;BMP180;52211;50.154;8.682;2022-10-17T15:45:35;100803.00;;;28.80
65569;BMP180;52211;50.154;8.682;2022-10-17T15:48:05;100798.00;;;28.80
65569;BMP180;52211;50.154;8.682;2022-10-17T15:50:32;100803.00;;;28.80
65569;BMP180;52211;50.154;8.682;2022-10-17T15:53:07;100798.00;;;28.70
65569;BMP180;52211;50.154;8.682;2022-10-17T15:55:34;100798.00;;;28.70
65569;BMP180;52211;50.154;8.682;2022-10-17T15:58:01;100802.00;;;28.60
65569;BMP180;52211;50.154;8.682;2022-10-17T16:00:30;100806.00;;;28.60
65569;BMP180;52211;50.154;8.682;2022-10-17T16:02:57;100808.00;;;28.50
65569;BMP180;52211;50.154;8.682;2022-10-17T16:05:27;100814.00;;;28.50
65569;BMP180;52211;50.154;8.682;2022-10-17T16:07:55;100808.00;;;28.40
65569;BMP180;52211;50.154;8.682;2022-10-17T16:10:26;100813.00;;;28.40
65569;BMP180;52211;50.154;8.682;2022-10-17T16:12:56;100817.00;;;28.30
65569;BMP180;52211;50.154;8.682;2022-10-17T16:15:26;100815.00;;;28.20
65569;BMP180;52211;50.154;8.682;2022-10-17T16:17:57;100821.00;;;28.20
65569;BMP180;52211;50.154;8.682;2022-10-17T16:20:28;100825.00;;;28.10
65569;BMP180;52211;50.154;8.682;2022-10-17T16:22:55;100828.00;;;28.00
65569;BMP180;52211;50.154;8.682;2022-10-17T16:25:30;100826.00;;;28.00
65569;BMP180;52211;50.154;8.682;2022-10-17T16:27:59;100830.00;;;27.90
65569;BMP180;52211;50.154;8.682;2022-10-17T16:30:30;100827.00;;;27.80
65569;BMP180;52211;50.154;8.682;2022-10-17T16:32:58;100829.00;;;27.70
65569;BMP180;52211;50.154;8.682;2022-10-17T16:35:29;100833.00;;;27.60
65569;BMP180;52211;50.154;8.682;2022-10-17T16:38:06;100831.00;;;27.60
65569;BMP180;52211;50.154;8.682;2022-10-17T16:40:33;100850.00;;;27.50